Terminal Aerodrome Forecast
Issued by NWS

Home | Current Version | Previous Version | Text Only | Print | Product List | Glossary On
Versions: 1 2 3 4 5 6 7 8 9 10 11 12 13 14 15 16 17 18
000
FTUS44 KLZK 300535
TAFPBF
TAF
KPBF 300535Z 3006/0106 15015G25KT P6SM SCT040 OVC050 WS020/17045KT
     FM300700 19015G25KT 5SM TSRA BR SCT015 OVC025CB
      TEMPO 3007/3011 1SM TSRA BR OVC009CB
     FM301500 21015G25KT P6SM OVC040
     FM301900 23015G25KT P6SM BKN050
     FM010000 22010KT P6SM SCT250=

USA.gov is the U.S. government's official web portal to all federal, state and local government web resources and services.